Hlavní strana
METAR-TAF:

METAR-TAF

Letiště :

Samsun, Turecko

zeměpisná šířka: 41-15-15N, zeměpisná délka: 036-34-03E, výška: 5 m

Aktuální stav počasí

Zpráva byla vytvořena před 33 minutami, v 03:50 UTC
Západoseverozápadní vítr 2 kt
Teplota 10°C
Vlhkost vzduchu 87%
Tlak 1021 hPa
Viditelnost: 6000 m
Skoro jasno ve výšce 700 ft
Polojasno ve výšce 2800 ft
Oblačno až skoro zataženo ve výšce 8000 ft

METAR: LTFH 050350Z 29002KT 6000 FEW007 SCT028 BKN080 10/08 Q1021 NOSIG

Čas: 07:23 (04:23 UTC)

Předpověď počasí

Zpráva byla vytvořena před 2 hodinami a 43 minutami, v 01:40 UTC
Předpověď platná od 05 v 03 UTC do 05 v 12 UTC
vítr z různých směrů 2 kt
Viditelnost: 6000 m
Skoro jasno ve výšce 800 ft
Polojasno ve výšce 2800 ft
Oblačno až skoro zataženo ve výšce 10000 ft
Dočasný
od 05 v 06 UTC do 05 v 09 UTC
Oblačno až skoro zataženo ve výšce 2800 ft
Oblačno až skoro zataženo ve výšce 8000 ft
slabé dešťové přeháňky

TAF: LTFH 050140Z 0503/0512 VRB02KT 6000 FEW008 SCT028 BKN100 TEMPO 0506/0509 -SHRA BKN028 BKN080

Stav a předpovědi počasí z více než 4 000 letišť (zprávy METAR a TAF).

Červené a žluté tečky na mapě představují dostupné meteorologické stanice.

Když kurzor umístíte na tečku, zobrazí se název stanice.

Pak kliknutím zobrazíte stav a předpověď počasí.

Chcete-li změnit mapu, kliknutím na zelené tlačítko se znaménkem +mapu přiblížíte, kliknutím na zelené tlačítko se znaménkem – mapu oddálíte a kliknutím na zelené šipky přejdete na sousední mapy.


METAR-TAF: